sensor_id;sensor_type;location;lat;lon;timestamp;P1;durP1;ratioP1;P2;durP2;ratioP2
50745;SDS011;36711;51.972;21.204;2022-07-29T00:02:27;9.60;;;4.00;;
50745;SDS011;36711;51.972;21.204;2022-07-29T00:04:55;5.50;;;2.90;;
50745;SDS011;36711;51.972;21.204;2022-07-29T00:07:23;4.30;;;2.40;;
50745;SDS011;36711;51.972;21.204;2022-07-29T00:09:51;3.70;;;2.60;;
50745;SDS011;36711;51.972;21.204;2022-07-29T00:12:20;7.40;;;3.10;;
50745;SDS011;36711;51.972;21.204;2022-07-29T00:14:53;5.80;;;3.10;;
50745;SDS011;36711;51.972;21.204;2022-07-29T00:17:22;6.90;;;3.00;;
50745;SDS011;36711;51.972;21.204;2022-07-29T00:19:53;6.30;;;3.10;;
50745;SDS011;36711;51.972;21.204;2022-07-29T00:22:20;8.30;;;3.00;;
50745;SDS011;36711;51.972;21.204;2022-07-29T00:24:48;6.40;;;2.60;;
50745;SDS011;36711;51.972;21.204;2022-07-29T00:27:16;3.60;;;2.50;;
50745;SDS011;36711;51.972;21.204;2022-07-29T00:29:45;5.00;;;2.60;;
50745;SDS011;36711;51.972;21.204;2022-07-29T00:32:12;3.30;;;2.60;;
50745;SDS011;36711;51.972;21.204;2022-07-29T00:34:40;5.10;;;2.70;;
50745;SDS011;36711;51.972;21.204;2022-07-29T00:37:26;5.10;;;3.10;;
50745;SDS011;36711;51.972;21.204;2022-07-29T00:39:54;4.60;;;3.20;;
50745;SDS011;36711;51.972;21.204;2022-07-29T00:42:22;3.90;;;3.30;;
50745;SDS011;36711;51.972;21.204;2022-07-29T00:44:49;5.80;;;3.20;;
50745;SDS011;36711;51.972;21.204;2022-07-29T00:47:17;8.00;;;2.60;;
50745;SDS011;36711;51.972;21.204;2022-07-29T00:49:45;9.70;;;2.80;;
50745;SDS011;36711;51.972;21.204;2022-07-29T00:52:13;6.10;;;3.60;;
50745;SDS011;36711;51.972;21.204;2022-07-29T00:54:43;6.60;;;3.30;;
50745;SDS011;36711;51.972;21.204;2022-07-29T00:57:11;7.20;;;3.80;;
50745;SDS011;36711;51.972;21.204;2022-07-29T00:59:40;7.90;;;4.10;;
50745;SDS011;36711;51.972;21.204;2022-07-29T01:02:07;7.00;;;3.50;;
50745;SDS011;36711;51.972;21.204;2022-07-29T01:04:35;5.30;;;3.50;;
50745;SDS011;36711;51.972;21.204;2022-07-29T01:07:03;5.00;;;3.40;;
50745;SDS011;36711;51.972;21.204;2022-07-29T01:09:32;8.80;;;3.60;;
50745;SDS011;36711;51.972;21.204;2022-07-29T01:12:13;6.30;;;3.50;;
50745;SDS011;36711;51.972;21.204;2022-07-29T01:14:44;8.20;;;3.90;;
50745;SDS011;36711;51.972;21.204;2022-07-29T01:22:31;5.70;;;3.70;;
50745;SDS011;36711;51.972;21.204;2022-07-29T01:25:19;9.80;;;4.20;;
50745;SDS011;36711;51.972;21.204;2022-07-29T01:30:59;7.60;;;4.30;;
50745;SDS011;36711;51.972;21.204;2022-07-29T01:33:32;7.90;;;4.00;;
50745;SDS011;36711;51.972;21.204;2022-07-29T01:36:31;6.60;;;4.30;;
50745;SDS011;36711;51.972;21.204;2022-07-29T01:39:04;11.50;;;5.20;;
50745;SDS011;36711;51.972;21.204;2022-07-29T01:41:36;8.10;;;5.10;;
50745;SDS011;36711;51.972;21.204;2022-07-29T01:44:17;8.90;;;5.00;;
50745;SDS011;36711;51.972;21.204;2022-07-29T01:46:50;6.10;;;4.70;;
50745;SDS011;36711;51.972;21.204;2022-07-29T01:49:22;7.50;;;4.20;;
50745;SDS011;36711;51.972;21.204;2022-07-29T01:51:56;8.60;;;4.50;;
50745;SDS011;36711;51.972;21.204;2022-07-29T01:54:38;7.30;;;5.00;;
50745;SDS011;36711;51.972;21.204;2022-07-29T01:57:13;10.60;;;5.40;;
50745;SDS011;36711;51.972;21.204;2022-07-29T01:59:45;8.40;;;5.10;;
50745;SDS011;36711;51.972;21.204;2022-07-29T02:02:15;9.80;;;5.20;;
50745;SDS011;36711;51.972;21.204;2022-07-29T02:04:45;9.10;;;5.60;;
50745;SDS011;36711;51.972;21.204;2022-07-29T02:07:17;8.60;;;5.00;;
50745;SDS011;36711;51.972;21.204;2022-07-29T02:09:47;11.80;;;5.10;;
50745;SDS011;36711;51.972;21.204;2022-07-29T02:12:17;8.80;;;5.10;;
50745;SDS011;36711;51.972;21.204;2022-07-29T02:14:47;11.90;;;5.40;;
50745;SDS011;36711;51.972;21.204;2022-07-29T02:17:21;12.00;;;5.40;;
50745;SDS011;36711;51.972;21.204;2022-07-29T02:19:52;9.60;;;6.10;;
50745;SDS011;36711;51.972;21.204;2022-07-29T02:22:23;12.40;;;5.90;;
50745;SDS011;36711;51.972;21.204;2022-07-29T02:24:52;7.50;;;5.30;;
50745;SDS011;36711;51.972;21.204;2022-07-29T02:27:20;10.00;;;4.80;;
50745;SDS011;36711;51.972;21.204;2022-07-29T02:29:50;9.20;;;5.00;;
50745;SDS011;36711;51.972;21.204;2022-07-29T02:32:19;10.40;;;5.40;;
50745;SDS011;36711;51.972;21.204;2022-07-29T02:34:50;9.80;;;5.70;;
50745;SDS011;36711;51.972;21.204;2022-07-29T02:37:19;11.40;;;5.40;;
50745;SDS011;36711;51.972;21.204;2022-07-29T02:39:48;9.30;;;5.30;;
50745;SDS011;36711;51.972;21.204;2022-07-29T02:42:19;12.20;;;4.80;;
50745;SDS011;36711;51.972;21.204;2022-07-29T02:44:49;7.50;;;4.40;;
50745;SDS011;36711;51.972;21.204;2022-07-29T02:47:31;10.20;;;4.60;;
50745;SDS011;36711;51.972;21.204;2022-07-29T02:50:20;7.70;;;5.00;;
50745;SDS011;36711;51.972;21.204;2022-07-29T02:58:05;9.30;;;5.70;;
50745;SDS011;36711;51.972;21.204;2022-07-29T03:00:40;9.20;;;4.80;;
50745;SDS011;36711;51.972;21.204;2022-07-29T03:03:09;7.20;;;4.10;;
50745;SDS011;36711;51.972;21.204;2022-07-29T03:05:42;9.40;;;5.40;;
50745;SDS011;36711;51.972;21.204;2022-07-29T03:08:10;10.10;;;5.50;;
50745;SDS011;36711;51.972;21.204;2022-07-29T03:10:39;12.70;;;5.70;;
50745;SDS011;36711;51.972;21.204;2022-07-29T03:13:10;15.10;;;5.50;;
50745;SDS011;36711;51.972;21.204;2022-07-29T03:15:39;10.20;;;6.20;;
50745;SDS011;36711;51.972;21.204;2022-07-29T03:18:11;9.10;;;5.80;;
50745;SDS011;36711;51.972;21.204;2022-07-29T03:20:39;17.70;;;5.90;;
50745;SDS011;36711;51.972;21.204;2022-07-29T03:23:08;9.70;;;5.80;;
50745;SDS011;36711;51.972;21.204;2022-07-29T03:25:35;14.00;;;6.30;;
50745;SDS011;36711;51.972;21.204;2022-07-29T03:28:03;11.80;;;5.60;;
50745;SDS011;36711;51.972;21.204;2022-07-29T03:30:31;11.00;;;5.50;;
50745;SDS011;36711;51.972;21.204;2022-07-29T03:32:59;7.80;;;4.80;;
50745;SDS011;36711;51.972;21.204;2022-07-29T03:35:28;8.10;;;5.50;;
50745;SDS011;36711;51.972;21.204;2022-07-29T03:37:59;13.70;;;6.10;;
50745;SDS011;36711;51.972;21.204;2022-07-29T03:43:31;14.80;;;7.70;;
50745;SDS011;36711;51.972;21.204;2022-07-29T03:46:00;10.20;;;5.30;;
50745;SDS011;36711;51.972;21.204;2022-07-29T03:48:31;10.80;;;5.30;;
50745;SDS011;36711;51.972;21.204;2022-07-29T03:51:00;9.80;;;5.00;;
50745;SDS011;36711;51.972;21.204;2022-07-29T03:53:28;10.20;;;5.70;;
50745;SDS011;36711;51.972;21.204;2022-07-29T03:55:57;7.80;;;5.30;;
50745;SDS011;36711;51.972;21.204;2022-07-29T03:58:27;7.40;;;4.70;;
50745;SDS011;36711;51.972;21.204;2022-07-29T04:00:55;9.00;;;5.30;;
50745;SDS011;36711;51.972;21.204;2022-07-29T04:03:23;8.90;;;4.60;;
50745;SDS011;36711;51.972;21.204;2022-07-29T04:06:25;7.90;;;4.60;;
50745;SDS011;36711;51.972;21.204;2022-07-29T04:08:44;9.50;;;4.50;;
50745;SDS011;36711;51.972;21.204;2022-07-29T04:11:12;8.10;;;4.60;;
50745;SDS011;36711;51.972;21.204;2022-07-29T04:13:40;8.40;;;4.20;;
50745;SDS011;36711;51.972;21.204;2022-07-29T04:16:08;6.80;;;4.80;;
50745;SDS011;36711;51.972;21.204;2022-07-29T04:18:36;9.70;;;4.60;;
50745;SDS011;36711;51.972;21.204;2022-07-29T04:21:03;9.90;;;5.10;;
50745;SDS011;36711;51.972;21.204;2022-07-29T04:23:31;6.20;;;3.80;;
50745;SDS011;36711;51.972;21.204;2022-07-29T04:26:19;12.00;;;4.10;;
50745;SDS011;36711;51.972;21.204;2022-07-29T04:28:47;6.60;;;3.20;;
50745;SDS011;36711;51.972;21.204;2022-07-29T04:31:15;6.30;;;2.80;;
50745;SDS011;36711;51.972;21.204;2022-07-29T04:33:44;4.90;;;3.40;;
50745;SDS011;36711;51.972;21.204;2022-07-29T04:36:12;9.80;;;3.80;;
50745;SDS011;36711;51.972;21.204;2022-07-29T04:38:56;4.80;;;2.60;;
50745;SDS011;36711;51.972;21.204;2022-07-29T04:41:23;5.20;;;2.70;;
50745;SDS011;36711;51.972;21.204;2022-07-29T04:43:59;3.60;;;2.40;;
50745;SDS011;36711;51.972;21.204;2022-07-29T04:46:33;5.60;;;2.30;;
50745;SDS011;36711;51.972;21.204;2022-07-29T04:49:02;5.00;;;2.10;;
50745;SDS011;36711;51.972;21.204;2022-07-29T04:51:30;4.50;;;2.20;;
50745;SDS011;36711;51.972;21.204;2022-07-29T04:53:58;6.80;;;2.40;;
50745;SDS011;36711;51.972;21.204;2022-07-29T04:56:26;9.50;;;2.10;;
50745;SDS011;36711;51.972;21.204;2022-07-29T04:58:54;4.80;;;2.00;;
50745;SDS011;36711;51.972;21.204;2022-07-29T05:01:22;4.30;;;2.20;;
50745;SDS011;36711;51.972;21.204;2022-07-29T05:03:50;4.80;;;2.10;;
50745;SDS011;36711;51.972;21.204;2022-07-29T05:06:22;5.40;;;1.70;;
50745;SDS011;36711;51.972;21.204;2022-07-29T05:08:49;2.30;;;1.60;;
50745;SDS011;36711;51.972;21.204;2022-07-29T05:11:17;3.10;;;1.80;;
50745;SDS011;36711;51.972;21.204;2022-07-29T05:13:49;1.80;;;1.40;;
50745;SDS011;36711;51.972;21.204;2022-07-29T05:16:17;3.30;;;1.60;;
50745;SDS011;36711;51.972;21.204;2022-07-29T05:18:44;3.30;;;1.80;;
50745;SDS011;36711;51.972;21.204;2022-07-29T05:21:12;19.30;;;2.30;;
50745;SDS011;36711;51.972;21.204;2022-07-29T05:23:40;8.00;;;2.30;;
50745;SDS011;36711;51.972;21.204;2022-07-29T05:26:07;3.90;;;2.00;;
50745;SDS011;36711;51.972;21.204;2022-07-29T05:28:35;3.00;;;2.20;;
50745;SDS011;36711;51.972;21.204;2022-07-29T05:31:03;4.30;;;2.10;;
50745;SDS011;36711;51.972;21.204;2022-07-29T05:33:30;3.50;;;2.30;;
50745;SDS011;36711;51.972;21.204;2022-07-29T05:36:06;4.60;;;2.20;;
50745;SDS011;36711;51.972;21.204;2022-07-29T05:38:35;3.90;;;2.20;;
50745;SDS011;36711;51.972;21.204;2022-07-29T05:41:04;3.40;;;1.70;;
50745;SDS011;36711;51.972;21.204;2022-07-29T05:43:32;3.00;;;1.40;;
50745;SDS011;36711;51.972;21.204;2022-07-29T05:46:00;1.40;;;1.20;;
50745;SDS011;36711;51.972;21.204;2022-07-29T05:48:28;2.90;;;1.20;;
50745;SDS011;36711;51.972;21.204;2022-07-29T05:50:55;3.40;;;1.20;;
50745;SDS011;36711;51.972;21.204;2022-07-29T05:53:23;2.30;;;1.30;;
50745;SDS011;36711;51.972;21.204;2022-07-29T05:55:51;4.70;;;1.30;;
50745;SDS011;36711;51.972;21.204;2022-07-29T05:58:19;1.30;;;1.10;;
50745;SDS011;36711;51.972;21.204;2022-07-29T06:00:47;2.60;;;1.30;;
50745;SDS011;36711;51.972;21.204;2022-07-29T06:03:15;3.50;;;1.10;;
50745;SDS011;36711;51.972;21.204;2022-07-29T06:05:43;3.50;;;1.30;;
50745;SDS011;36711;51.972;21.204;2022-07-29T06:08:10;4.20;;;1.30;;
50745;SDS011;36711;51.972;21.204;2022-07-29T06:10:38;5.90;;;1.20;;
50745;SDS011;36711;51.972;21.204;2022-07-29T06:13:06;3.10;;;1.10;;
50745;SDS011;36711;51.972;21.204;2022-07-29T06:15:34;3.10;;;1.00;;
50745;SDS011;36711;51.972;21.204;2022-07-29T06:18:02;1.70;;;0.80;;
50745;SDS011;36711;51.972;21.204;2022-07-29T06:20:30;1.70;;;0.90;;
50745;SDS011;36711;51.972;21.204;2022-07-29T06:22:59;1.20;;;0.70;;
50745;SDS011;36711;51.972;21.204;2022-07-29T06:25:27;1.70;;;0.90;;
50745;SDS011;36711;51.972;21.204;2022-07-29T06:27:59;4.10;;;0.80;;
50745;SDS011;36711;51.972;21.204;2022-07-29T06:30:27;2.40;;;0.80;;
50745;SDS011;36711;51.972;21.204;2022-07-29T06:32:56;1.90;;;0.70;;
50745;SDS011;36711;51.972;21.204;2022-07-29T06:35:23;4.00;;;0.70;;
50745;SDS011;36711;51.972;21.204;2022-07-29T06:38:08;1.40;;;0.70;;
50745;SDS011;36711;51.972;21.204;2022-07-29T06:40:57;1.00;;;0.70;;
50745;SDS011;36711;51.972;21.204;2022-07-29T06:43:34;0.90;;;0.80;;
50745;SDS011;36711;51.972;21.204;2022-07-29T06:46:19;1.50;;;0.80;;
50745;SDS011;36711;51.972;21.204;2022-07-29T06:48:49;0.70;;;0.50;;
50745;SDS011;36711;51.972;21.204;2022-07-29T06:51:19;1.00;;;0.50;;
50745;SDS011;36711;51.972;21.204;2022-07-29T06:53:51;3.40;;;0.60;;
50745;SDS011;36711;51.972;21.204;2022-07-29T06:56:25;1.80;;;0.70;;
50745;SDS011;36711;51.972;21.204;2022-07-29T06:58:52;0.90;;;0.60;;
50745;SDS011;36711;51.972;21.204;2022-07-29T07:01:20;3.80;;;0.80;;
50745;SDS011;36711;51.972;21.204;2022-07-29T07:03:48;2.80;;;0.70;;
50745;SDS011;36711;51.972;21.204;2022-07-29T07:06:16;3.30;;;0.80;;
50745;SDS011;36711;51.972;21.204;2022-07-29T07:08:44;1.90;;;0.60;;
50745;SDS011;36711;51.972;21.204;2022-07-29T07:11:11;1.90;;;0.60;;
50745;SDS011;36711;51.972;21.204;2022-07-29T07:13:39;2.00;;;0.90;;
50745;SDS011;36711;51.972;21.204;2022-07-29T07:16:07;1.10;;;0.70;;
50745;SDS011;36711;51.972;21.204;2022-07-29T07:18:34;3.80;;;1.00;;
50745;SDS011;36711;51.972;21.204;2022-07-29T07:21:02;1.50;;;0.80;;
50745;SDS011;36711;51.972;21.204;2022-07-29T07:23:32;2.50;;;0.80;;
50745;SDS011;36711;51.972;21.204;2022-07-29T07:25:59;1.30;;;0.70;;
50745;SDS011;36711;51.972;21.204;2022-07-29T07:28:27;1.40;;;0.80;;
50745;SDS011;36711;51.972;21.204;2022-07-29T07:30:55;3.20;;;0.60;;
50745;SDS011;36711;51.972;21.204;2022-07-29T07:33:23;6.40;;;0.70;;
50745;SDS011;36711;51.972;21.204;2022-07-29T07:35:50;0.80;;;0.80;;
50745;SDS011;36711;51.972;21.204;2022-07-29T07:38:18;2.70;;;0.60;;
50745;SDS011;36711;51.972;21.204;2022-07-29T07:40:46;3.80;;;1.00;;
50745;SDS011;36711;51.972;21.204;2022-07-29T07:43:13;1.80;;;0.90;;
50745;SDS011;36711;51.972;21.204;2022-07-29T07:45:41;4.90;;;0.70;;
50745;SDS011;36711;51.972;21.204;2022-07-29T07:48:09;1.90;;;0.80;;
50745;SDS011;36711;51.972;21.204;2022-07-29T07:50:37;2.00;;;0.70;;
50745;SDS011;36711;51.972;21.204;2022-07-29T07:53:05;3.00;;;0.60;;
50745;SDS011;36711;51.972;21.204;2022-07-29T07:55:33;1.30;;;0.70;;
50745;SDS011;36711;51.972;21.204;2022-07-29T07:58:21;0.50;;;0.50;;
50745;SDS011;36711;51.972;21.204;2022-07-29T08:00:49;1.80;;;0.70;;
50745;SDS011;36711;51.972;21.204;2022-07-29T08:03:18;1.70;;;0.70;;
50745;SDS011;36711;51.972;21.204;2022-07-29T08:05:46;4.10;;;0.70;;
50745;SDS011;36711;51.972;21.204;2022-07-29T08:08:16;7.20;;;1.10;;
50745;SDS011;36711;51.972;21.204;2022-07-29T08:10:45;2.80;;;0.60;;
50745;SDS011;36711;51.972;21.204;2022-07-29T08:13:20;2.30;;;0.80;;
50745;SDS011;36711;51.972;21.204;2022-07-29T08:15:48;1.20;;;0.60;;
50745;SDS011;36711;51.972;21.204;2022-07-29T08:18:26;1.80;;;0.70;;
50745;SDS011;36711;51.972;21.204;2022-07-29T08:20:55;2.30;;;0.80;;
50745;SDS011;36711;51.972;21.204;2022-07-29T08:23:23;2.10;;;0.80;;
50745;SDS011;36711;51.972;21.204;2022-07-29T08:25:51;4.10;;;0.70;;
50745;SDS011;36711;51.972;21.204;2022-07-29T08:28:21;2.40;;;0.80;;
50745;SDS011;36711;51.972;21.204;2022-07-29T08:30:52;1.30;;;0.70;;
50745;SDS011;36711;51.972;21.204;2022-07-29T08:33:20;2.10;;;0.80;;
50745;SDS011;36711;51.972;21.204;2022-07-29T08:35:47;2.50;;;0.60;;
50745;SDS011;36711;51.972;21.204;2022-07-29T08:38:17;2.00;;;0.70;;
50745;SDS011;36711;51.972;21.204;2022-07-29T08:40:45;0.60;;;0.60;;
50745;SDS011;36711;51.972;21.204;2022-07-29T08:43:13;2.30;;;0.70;;
50745;SDS011;36711;51.972;21.204;2022-07-29T08:45:42;1.90;;;0.50;;
50745;SDS011;36711;51.972;21.204;2022-07-29T08:48:14;1.30;;;0.60;;
50745;SDS011;36711;51.972;21.204;2022-07-29T08:50:48;1.60;;;0.70;;
50745;SDS011;36711;51.972;21.204;2022-07-29T08:53:19;3.40;;;1.00;;
50745;SDS011;36711;51.972;21.204;2022-07-29T08:55:49;3.20;;;1.80;;
50745;SDS011;36711;51.972;21.204;2022-07-29T08:58:17;2.50;;;1.30;;
50745;SDS011;36711;51.972;21.204;2022-07-29T09:00:51;2.90;;;1.50;;
50745;SDS011;36711;51.972;21.204;2022-07-29T09:03:25;2.00;;;1.40;;
50745;SDS011;36711;51.972;21.204;2022-07-29T09:06:00;4.50;;;0.80;;
50745;SDS011;36711;51.972;21.204;2022-07-29T09:08:30;6.30;;;0.90;;
50745;SDS011;36711;51.972;21.204;2022-07-29T09:11:00;2.70;;;0.70;;
50745;SDS011;36711;51.972;21.204;2022-07-29T09:13:31;2.30;;;0.60;;
50745;SDS011;36711;51.972;21.204;2022-07-29T09:15:59;1.70;;;0.70;;
50745;SDS011;36711;51.972;21.204;2022-07-29T09:18:38;1.70;;;0.50;;
50745;SDS011;36711;51.972;21.204;2022-07-29T09:21:08;2.40;;;0.50;;
50745;SDS011;36711;51.972;21.204;2022-07-29T09:24:06;1.30;;;0.40;;
50745;SDS011;36711;51.972;21.204;2022-07-29T09:26:36;1.60;;;0.60;;
50745;SDS011;36711;51.972;21.204;2022-07-29T09:29:10;1.10;;;0.50;;
50745;SDS011;36711;51.972;21.204;2022-07-29T09:31:41;2.20;;;0.50;;
50745;SDS011;36711;51.972;21.204;2022-07-29T09:34:12;2.50;;;0.40;;
50745;SDS011;36711;51.972;21.204;2022-07-29T09:36:51;3.50;;;0.60;;
50745;SDS011;36711;51.972;21.204;2022-07-29T09:39:34;2.50;;;0.50;;
50745;SDS011;36711;51.972;21.204;2022-07-29T09:42:13;3.20;;;0.30;;
50745;SDS011;36711;51.972;21.204;2022-07-29T09:44:49;2.50;;;0.40;;
50745;SDS011;36711;51.972;21.204;2022-07-29T09:47:18;1.30;;;0.40;;
50745;SDS011;36711;51.972;21.204;2022-07-29T09:52:29;0.40;;;0.30;;
50745;SDS011;36711;51.972;21.204;2022-07-29T09:55:06;5.60;;;0.50;;
50745;SDS011;36711;51.972;21.204;2022-07-29T09:57:35;1.00;;;0.60;;
50745;SDS011;36711;51.972;21.204;2022-07-29T10:02:35;1.80;;;0.40;;
50745;SDS011;36711;51.972;21.204;2022-07-29T10:05:05;2.40;;;0.40;;
50745;SDS011;36711;51.972;21.204;2022-07-29T10:07:53;1.50;;;0.30;;
50745;SDS011;36711;51.972;21.204;2022-07-29T10:10:24;0.40;;;0.30;;
50745;SDS011;36711;51.972;21.204;2022-07-29T10:15:33;2.20;;;0.40;;
50745;SDS011;36711;51.972;21.204;2022-07-29T10:18:08;1.40;;;0.30;;
50745;SDS011;36711;51.972;21.204;2022-07-29T10:20:37;1.60;;;0.40;;
50745;SDS011;36711;51.972;21.204;2022-07-29T10:23:05;4.40;;;0.30;;
50745;SDS011;36711;51.972;21.204;2022-07-29T10:25:33;5.70;;;0.60;;
50745;SDS011;36711;51.972;21.204;2022-07-29T10:28:01;4.40;;;1.30;;
50745;SDS011;36711;51.972;21.204;2022-07-29T10:30:28;1.60;;;0.40;;
50745;SDS011;36711;51.972;21.204;2022-07-29T10:33:06;5.00;;;0.50;;
50745;SDS011;36711;51.972;21.204;2022-07-29T10:41:19;5.10;;;0.50;;
50745;SDS011;36711;51.972;21.204;2022-07-29T10:46:52;5.50;;;0.30;;
50745;SDS011;36711;51.972;21.204;2022-07-29T10:49:24;3.80;;;0.30;;
50745;SDS011;36711;51.972;21.204;2022-07-29T10:51:58;1.60;;;0.50;;
50745;SDS011;36711;51.972;21.204;2022-07-29T10:57:22;1.20;;;0.30;;
50745;SDS011;36711;51.972;21.204;2022-07-29T11:02:46;4.70;;;0.30;;
50745;SDS011;36711;51.972;21.204;2022-07-29T11:05:19;1.70;;;0.40;;
50745;SDS011;36711;51.972;21.204;2022-07-29T11:10:47;5.90;;;0.40;;
50745;SDS011;36711;51.972;21.204;2022-07-29T11:16:15;3.80;;;0.50;;
50745;SDS011;36711;51.972;21.204;2022-07-29T11:21:57;4.30;;;0.30;;
50745;SDS011;36711;51.972;21.204;2022-07-29T11:24:26;0.50;;;0.20;;
50745;SDS011;36711;51.972;21.204;2022-07-29T11:27:18;1.00;;;0.30;;
50745;SDS011;36711;51.972;21.204;2022-07-29T11:29:55;1.30;;;0.20;;
50745;SDS011;36711;51.972;21.204;2022-07-29T11:32:44;1.40;;;0.50;;
50745;SDS011;36711;51.972;21.204;2022-07-29T11:35:19;0.80;;;0.30;;
50745;SDS011;36711;51.972;21.204;2022-07-29T11:38:25;2.40;;;0.30;;
50745;SDS011;36711;51.972;21.204;2022-07-29T11:49:20;1.90;;;0.50;;
50745;SDS011;36711;51.972;21.204;2022-07-29T11:51:59;2.40;;;0.30;;
50745;SDS011;36711;51.972;21.204;2022-07-29T11:54:33;3.10;;;0.40;;
50745;SDS011;36711;51.972;21.204;2022-07-29T11:57:22;1.90;;;0.30;;
50745;SDS011;36711;51.972;21.204;2022-07-29T12:00:04;0.90;;;0.30;;
50745;SDS011;36711;51.972;21.204;2022-07-29T12:02:41;1.50;;;0.30;;
50745;SDS011;36711;51.972;21.204;2022-07-29T12:05:15;1.00;;;0.40;;
50745;SDS011;36711;51.972;21.204;2022-07-29T12:08:10;0.90;;;0.40;;
50745;SDS011;36711;51.972;21.204;2022-07-29T12:10:46;0.80;;;0.30;;
50745;SDS011;36711;51.972;21.204;2022-07-29T12:13:16;1.60;;;0.40;;
50745;SDS011;36711;51.972;21.204;2022-07-29T12:15:53;5.60;;;0.30;;
50745;SDS011;36711;51.972;21.204;2022-07-29T12:18:26;1.10;;;0.30;;
50745;SDS011;36711;51.972;21.204;2022-07-29T12:20:58;2.20;;;0.40;;
50745;SDS011;36711;51.972;21.204;2022-07-29T12:23:33;2.70;;;0.30;;
50745;SDS011;36711;51.972;21.204;2022-07-29T12:26:06;2.60;;;0.30;;
50745;SDS011;36711;51.972;21.204;2022-07-29T12:28:37;3.40;;;0.20;;
50745;SDS011;36711;51.972;21.204;2022-07-29T12:31:11;1.50;;;0.30;;
50745;SDS011;36711;51.972;21.204;2022-07-29T12:34:01;1.20;;;0.30;;
50745;SDS011;36711;51.972;21.204;2022-07-29T12:36:28;0.90;;;0.20;;
50745;SDS011;36711;51.972;21.204;2022-07-29T12:38:56;0.70;;;0.20;;
50745;SDS011;36711;51.972;21.204;2022-07-29T12:41:24;1.60;;;0.30;;
50745;SDS011;36711;51.972;21.204;2022-07-29T12:43:52;2.40;;;0.30;;
50745;SDS011;36711;51.972;21.204;2022-07-29T12:46:21;1.30;;;0.30;;
50745;SDS011;36711;51.972;21.204;2022-07-29T12:48:51;0.90;;;0.30;;
50745;SDS011;36711;51.972;21.204;2022-07-29T12:51:34;5.20;;;0.50;;
50745;SDS011;36711;51.972;21.204;2022-07-29T12:54:08;1.30;;;0.30;;
50745;SDS011;36711;51.972;21.204;2022-07-29T12:59:19;1.60;;;0.50;;
50745;SDS011;36711;51.972;21.204;2022-07-29T13:01:49;0.50;;;0.30;;
50745;SDS011;36711;51.972;21.204;2022-07-29T13:04:31;2.70;;;0.40;;
50745;SDS011;36711;51.972;21.204;2022-07-29T13:07:01;0.60;;;0.30;;
50745;SDS011;36711;51.972;21.204;2022-07-29T13:09:43;1.60;;;0.40;;
50745;SDS011;36711;51.972;21.204;2022-07-29T13:12:13;2.80;;;0.30;;
50745;SDS011;36711;51.972;21.204;2022-07-29T13:17:14;6.90;;;0.40;;
50745;SDS011;36711;51.972;21.204;2022-07-29T13:20:03;2.40;;;0.40;;
50745;SDS011;36711;51.972;21.204;2022-07-29T13:22:36;2.20;;;0.30;;
50745;SDS011;36711;51.972;21.204;2022-07-29T13:25:04;0.70;;;0.20;;
50745;SDS011;36711;51.972;21.204;2022-07-29T13:27:36;2.60;;;0.20;;
50745;SDS011;36711;51.972;21.204;2022-07-29T13:30:06;19.70;;;0.90;;
50745;SDS011;36711;51.972;21.204;2022-07-29T13:32:35;2.70;;;0.40;;
50745;SDS011;36711;51.972;21.204;2022-07-29T13:35:05;1.30;;;0.30;;
50745;SDS011;36711;51.972;21.204;2022-07-29T13:37:35;1.10;;;0.40;;
50745;SDS011;36711;51.972;21.204;2022-07-29T13:40:06;0.60;;;0.30;;
50745;SDS011;36711;51.972;21.204;2022-07-29T13:42:35;1.40;;;0.20;;
50745;SDS011;36711;51.972;21.204;2022-07-29T13:45:03;3.10;;;0.30;;
50745;SDS011;36711;51.972;21.204;2022-07-29T13:47:32;3.40;;;0.30;;
50745;SDS011;36711;51.972;21.204;2022-07-29T13:50:00;1.70;;;0.40;;
50745;SDS011;36711;51.972;21.204;2022-07-29T13:52:28;1.70;;;0.30;;
50745;SDS011;36711;51.972;21.204;2022-07-29T13:54:56;3.90;;;0.40;;
50745;SDS011;36711;51.972;21.204;2022-07-29T13:57:24;1.60;;;0.60;;
50745;SDS011;36711;51.972;21.204;2022-07-29T13:59:51;3.00;;;0.60;;
50745;SDS011;36711;51.972;21.204;2022-07-29T14:02:21;4.40;;;0.30;;
50745;SDS011;36711;51.972;21.204;2022-07-29T14:04:52;1.20;;;0.30;;
50745;SDS011;36711;51.972;21.204;2022-07-29T14:07:21;1.10;;;0.30;;
50745;SDS011;36711;51.972;21.204;2022-07-29T14:09:50;0.80;;;0.30;;
50745;SDS011;36711;51.972;21.204;2022-07-29T14:12:17;1.10;;;0.40;;
50745;SDS011;36711;51.972;21.204;2022-07-29T14:14:46;1.10;;;0.40;;
50745;SDS011;36711;51.972;21.204;2022-07-29T14:17:14;0.80;;;0.30;;
50745;SDS011;36711;51.972;21.204;2022-07-29T14:19:42;0.40;;;0.20;;
50745;SDS011;36711;51.972;21.204;2022-07-29T14:22:10;0.70;;;0.30;;
50745;SDS011;36711;51.972;21.204;2022-07-29T14:24:38;3.20;;;0.30;;
50745;SDS011;36711;51.972;21.204;2022-07-29T14:27:06;7.80;;;0.80;;
50745;SDS011;36711;51.972;21.204;2022-07-29T14:29:35;8.60;;;0.50;;
50745;SDS011;36711;51.972;21.204;2022-07-29T14:32:05;0.90;;;0.30;;
50745;SDS011;36711;51.972;21.204;2022-07-29T14:34:37;3.70;;;0.50;;
50745;SDS011;36711;51.972;21.204;2022-07-29T14:37:22;1.20;;;0.30;;
50745;SDS011;36711;51.972;21.204;2022-07-29T14:39:50;2.70;;;0.30;;
50745;SDS011;36711;51.972;21.204;2022-07-29T14:42:17;2.60;;;0.40;;
50745;SDS011;36711;51.972;21.204;2022-07-29T14:44:45;1.10;;;0.30;;
50745;SDS011;36711;51.972;21.204;2022-07-29T14:47:15;0.40;;;0.20;;
50745;SDS011;36711;51.972;21.204;2022-07-29T14:49:43;3.50;;;0.40;;
50745;SDS011;36711;51.972;21.204;2022-07-29T14:52:10;1.10;;;0.40;;
50745;SDS011;36711;51.972;21.204;2022-07-29T14:54:38;0.70;;;0.30;;
50745;SDS011;36711;51.972;21.204;2022-07-29T14:57:06;0.50;;;0.30;;
50745;SDS011;36711;51.972;21.204;2022-07-29T14:59:34;5.30;;;0.30;;
50745;SDS011;36711;51.972;21.204;2022-07-29T15:02:02;2.40;;;0.30;;
50745;SDS011;36711;51.972;21.204;2022-07-29T15:04:30;1.90;;;0.30;;
50745;SDS011;36711;51.972;21.204;2022-07-29T15:06:58;1.20;;;0.30;;
50745;SDS011;36711;51.972;21.204;2022-07-29T15:09:25;3.20;;;0.30;;
50745;SDS011;36711;51.972;21.204;2022-07-29T15:11:53;1.10;;;0.20;;
50745;SDS011;36711;51.972;21.204;2022-07-29T15:14:21;2.70;;;0.50;;
50745;SDS011;36711;51.972;21.204;2022-07-29T15:16:49;0.60;;;0.30;;
50745;SDS011;36711;51.972;21.204;2022-07-29T15:19:19;0.40;;;0.30;;
50745;SDS011;36711;51.972;21.204;2022-07-29T15:21:47;1.70;;;0.50;;
50745;SDS011;36711;51.972;21.204;2022-07-29T15:24:16;3.40;;;0.30;;
50745;SDS011;36711;51.972;21.204;2022-07-29T15:26:44;1.30;;;0.30;;
50745;SDS011;36711;51.972;21.204;2022-07-29T15:29:12;4.10;;;0.40;;
50745;SDS011;36711;51.972;21.204;2022-07-29T15:31:40;3.70;;;0.40;;
50745;SDS011;36711;51.972;21.204;2022-07-29T15:34:08;0.50;;;0.30;;
50745;SDS011;36711;51.972;21.204;2022-07-29T15:36:36;3.60;;;0.30;;
50745;SDS011;36711;51.972;21.204;2022-07-29T15:39:19;0.80;;;0.50;;
50745;SDS011;36711;51.972;21.204;2022-07-29T15:41:48;1.20;;;0.40;;
50745;SDS011;36711;51.972;21.204;2022-07-29T15:44:16;2.70;;;0.60;;
50745;SDS011;36711;51.972;21.204;2022-07-29T15:46:44;2.20;;;0.40;;
50745;SDS011;36711;51.972;21.204;2022-07-29T15:49:31;2.20;;;0.40;;
50745;SDS011;36711;51.972;21.204;2022-07-29T15:52:16;2.40;;;0.50;;
50745;SDS011;36711;51.972;21.204;2022-07-29T15:54:53;3.60;;;0.40;;
50745;SDS011;36711;51.972;21.204;2022-07-29T15:57:22;0.50;;;0.20;;
50745;SDS011;36711;51.972;21.204;2022-07-29T15:59:51;3.10;;;0.50;;